sensor_id;sensor_type;location;lat;lon;timestamp;temperature;humidity
66522;SHT31;53349;53.538;8.584;2022-08-19T00:01:46;20.35;71.98
66522;SHT31;53349;53.538;8.584;2022-08-19T00:04:14;20.32;71.75
66522;SHT31;53349;53.538;8.584;2022-08-19T00:06:41;20.28;71.82
66522;SHT31;53349;53.538;8.584;2022-08-19T00:09:10;20.29;72.00
66522;SHT31;53349;53.538;8.584;2022-08-19T00:11:36;20.24;71.94
66522;SHT31;53349;53.538;8.584;2022-08-19T00:14:03;20.31;72.11
66522;SHT31;53349;53.538;8.584;2022-08-19T00:16:29;20.29;72.06
66522;SHT31;53349;53.538;8.584;2022-08-19T00:18:55;20.31;72.03
66522;SHT31;53349;53.538;8.584;2022-08-19T00:21:21;20.28;72.11
66522;SHT31;53349;53.538;8.584;2022-08-19T00:23:47;20.29;72.18
66522;SHT31;53349;53.538;8.584;2022-08-19T00:26:12;20.28;72.38
66522;SHT31;53349;53.538;8.584;2022-08-19T00:28:37;20.24;72.44
66522;SHT31;53349;53.538;8.584;2022-08-19T00:31:05;20.29;72.49
66522;SHT31;53349;53.538;8.584;2022-08-19T00:33:32;20.25;72.41
66522;SHT31;53349;53.538;8.584;2022-08-19T00:35:59;20.25;72.46
66522;SHT31;53349;53.538;8.584;2022-08-19T00:38:25;20.22;72.45
66522;SHT31;53349;53.538;8.584;2022-08-19T00:40:50;20.22;72.44
66522;SHT31;53349;53.538;8.584;2022-08-19T00:43:20;20.22;72.29
66522;SHT31;53349;53.538;8.584;2022-08-19T00:45:47;20.22;72.27
66522;SHT31;53349;53.538;8.584;2022-08-19T00:48:13;20.24;72.39
66522;SHT31;53349;53.538;8.584;2022-08-19T00:50:39;20.21;72.39
66522;SHT31;53349;53.538;8.584;2022-08-19T00:53:06;20.24;72.39
66522;SHT31;53349;53.538;8.584;2022-08-19T00:55:32;20.25;72.26
66522;SHT31;53349;53.538;8.584;2022-08-19T00:58:02;20.22;72.22
66522;SHT31;53349;53.538;8.584;2022-08-19T01:00:30;20.24;72.23
66522;SHT31;53349;53.538;8.584;2022-08-19T01:02:55;20.17;72.01
66522;SHT31;53349;53.538;8.584;2022-08-19T01:05:24;20.11;72.30
66522;SHT31;53349;53.538;8.584;2022-08-19T01:07:53;20.10;72.38
66522;SHT31;53349;53.538;8.584;2022-08-19T01:10:21;20.08;72.46
66522;SHT31;53349;53.538;8.584;2022-08-19T01:12:48;20.11;72.50
66522;SHT31;53349;53.538;8.584;2022-08-19T01:15:16;20.08;72.41
66522;SHT31;53349;53.538;8.584;2022-08-19T01:17:43;20.06;72.53
66522;SHT31;53349;53.538;8.584;2022-08-19T01:20:13;20.01;72.56
66522;SHT31;53349;53.538;8.584;2022-08-19T01:22:48;20.04;72.59
66522;SHT31;53349;53.538;8.584;2022-08-19T01:25:15;20.06;72.58
66522;SHT31;53349;53.538;8.584;2022-08-19T01:27:44;20.04;72.70
66522;SHT31;53349;53.538;8.584;2022-08-19T01:30:26;20.07;72.81
66522;SHT31;53349;53.538;8.584;2022-08-19T01:32:52;20.06;72.85
66522;SHT31;53349;53.538;8.584;2022-08-19T01:35:18;20.04;72.77
66522;SHT31;53349;53.538;8.584;2022-08-19T01:37:54;19.98;72.77
66522;SHT31;53349;53.538;8.584;2022-08-19T01:40:21;19.98;72.79
66522;SHT31;53349;53.538;8.584;2022-08-19T01:42:48;19.91;72.76
66522;SHT31;53349;53.538;8.584;2022-08-19T01:45:15;19.86;72.89
66522;SHT31;53349;53.538;8.584;2022-08-19T01:47:41;19.80;72.87
66522;SHT31;53349;53.538;8.584;2022-08-19T01:50:08;19.77;73.02
66522;SHT31;53349;53.538;8.584;2022-08-19T01:52:40;19.81;73.10
66522;SHT31;53349;53.538;8.584;2022-08-19T01:55:09;19.84;72.97
66522;SHT31;53349;53.538;8.584;2022-08-19T01:57:36;19.90;72.90
66522;SHT31;53349;53.538;8.584;2022-08-19T02:00:05;19.87;72.86
66522;SHT31;53349;53.538;8.584;2022-08-19T02:02:31;19.90;72.89
66522;SHT31;53349;53.538;8.584;2022-08-19T02:04:57;19.93;72.79
66522;SHT31;53349;53.538;8.584;2022-08-19T02:07:22;19.88;72.79
66522;SHT31;53349;53.538;8.584;2022-08-19T02:09:48;19.94;72.85
66522;SHT31;53349;53.538;8.584;2022-08-19T02:12:14;19.96;72.81
66522;SHT31;53349;53.538;8.584;2022-08-19T02:14:39;19.96;72.65
66522;SHT31;53349;53.538;8.584;2022-08-19T02:17:05;19.93;72.67
66522;SHT31;53349;53.538;8.584;2022-08-19T02:19:31;19.94;72.70
66522;SHT31;53349;53.538;8.584;2022-08-19T02:21:58;19.96;72.58
66522;SHT31;53349;53.538;8.584;2022-08-19T02:24:24;19.96;72.59
66522;SHT31;53349;53.538;8.584;2022-08-19T02:26:49;19.97;72.59
66522;SHT31;53349;53.538;8.584;2022-08-19T02:29:15;19.96;72.61
66522;SHT31;53349;53.538;8.584;2022-08-19T02:31:41;19.96;72.76
66522;SHT31;53349;53.538;8.584;2022-08-19T02:34:07;19.93;72.81
66522;SHT31;53349;53.538;8.584;2022-08-19T02:36:32;19.93;72.75
66522;SHT31;53349;53.538;8.584;2022-08-19T02:38:57;19.97;72.88
66522;SHT31;53349;53.538;8.584;2022-08-19T02:41:26;19.98;72.75
66522;SHT31;53349;53.538;8.584;2022-08-19T02:43:52;19.98;72.84
66522;SHT31;53349;53.538;8.584;2022-08-19T02:48:48;19.96;72.88
66522;SHT31;53349;53.538;8.584;2022-08-19T02:51:22;19.96;72.83
66522;SHT31;53349;53.538;8.584;2022-08-19T02:53:48;19.93;72.91
66522;SHT31;53349;53.538;8.584;2022-08-19T02:56:14;19.88;73.06
66522;SHT31;53349;53.538;8.584;2022-08-19T02:58:40;19.88;73.08
66522;SHT31;53349;53.538;8.584;2022-08-19T03:01:06;19.86;73.19
66522;SHT31;53349;53.538;8.584;2022-08-19T03:03:32;19.86;73.22
66522;SHT31;53349;53.538;8.584;2022-08-19T03:06:05;19.87;73.12
66522;SHT31;53349;53.538;8.584;2022-08-19T03:08:30;19.83;73.12
66522;SHT31;53349;53.538;8.584;2022-08-19T03:10:56;19.86;73.21
66522;SHT31;53349;53.538;8.584;2022-08-19T03:13:21;19.81;72.97
66522;SHT31;53349;53.538;8.584;2022-08-19T03:15:48;19.78;72.96
66522;SHT31;53349;53.538;8.584;2022-08-19T03:18:14;19.77;72.98
66522;SHT31;53349;53.538;8.584;2022-08-19T03:20:45;19.78;73.11
66522;SHT31;53349;53.538;8.584;2022-08-19T03:23:14;19.74;73.19
66522;SHT31;53349;53.538;8.584;2022-08-19T03:25:42;19.71;73.30
66522;SHT31;53349;53.538;8.584;2022-08-19T03:28:10;19.74;73.43
66522;SHT31;53349;53.538;8.584;2022-08-19T03:30:35;19.70;73.50
66522;SHT31;53349;53.538;8.584;2022-08-19T03:33:01;19.69;73.64
66522;SHT31;53349;53.538;8.584;2022-08-19T03:35:27;19.63;73.55
66522;SHT31;53349;53.538;8.584;2022-08-19T03:37:53;19.63;73.57
66522;SHT31;53349;53.538;8.584;2022-08-19T03:40:18;19.62;73.62
66522;SHT31;53349;53.538;8.584;2022-08-19T03:42:44;19.57;73.66
66522;SHT31;53349;53.538;8.584;2022-08-19T03:45:11;19.56;73.70
66522;SHT31;53349;53.538;8.584;2022-08-19T03:47:37;19.57;73.83
66522;SHT31;53349;53.538;8.584;2022-08-19T03:50:03;19.56;73.67
66522;SHT31;53349;53.538;8.584;2022-08-19T03:52:29;19.55;73.84
66522;SHT31;53349;53.538;8.584;2022-08-19T03:54:55;19.49;73.90
66522;SHT31;53349;53.538;8.584;2022-08-19T03:57:20;19.47;73.87
66522;SHT31;53349;53.538;8.584;2022-08-19T03:59:46;19.43;73.74
66522;SHT31;53349;53.538;8.584;2022-08-19T04:02:12;19.49;73.64
66522;SHT31;53349;53.538;8.584;2022-08-19T04:04:40;19.47;73.61
66522;SHT31;53349;53.538;8.584;2022-08-19T04:07:06;19.39;73.76
66522;SHT31;53349;53.538;8.584;2022-08-19T04:09:34;19.36;73.83
66522;SHT31;53349;53.538;8.584;2022-08-19T04:12:01;19.38;73.95
66522;SHT31;53349;53.538;8.584;2022-08-19T04:14:29;19.33;73.81
66522;SHT31;53349;53.538;8.584;2022-08-19T04:16:59;19.30;73.64
66522;SHT31;53349;53.538;8.584;2022-08-19T04:19:25;19.36;73.74
66522;SHT31;53349;53.538;8.584;2022-08-19T04:21:53;19.35;73.73
66522;SHT31;53349;53.538;8.584;2022-08-19T04:24:19;19.33;73.60
66522;SHT31;53349;53.538;8.584;2022-08-19T04:26:45;19.36;73.64
66522;SHT31;53349;53.538;8.584;2022-08-19T04:29:17;19.36;73.50
66522;SHT31;53349;53.538;8.584;2022-08-19T04:31:44;19.43;73.46
66522;SHT31;53349;53.538;8.584;2022-08-19T04:34:13;19.45;73.31
66522;SHT31;53349;53.538;8.584;2022-08-19T04:36:40;19.46;73.32
66522;SHT31;53349;53.538;8.584;2022-08-19T04:39:12;19.43;73.30
66522;SHT31;53349;53.538;8.584;2022-08-19T04:41:37;19.42;73.12
66522;SHT31;53349;53.538;8.584;2022-08-19T04:44:21;19.43;73.10
66522;SHT31;53349;53.538;8.584;2022-08-19T04:46:48;19.38;73.07
66522;SHT31;53349;53.538;8.584;2022-08-19T04:49:14;19.35;73.19
66522;SHT31;53349;53.538;8.584;2022-08-19T04:51:43;19.36;73.15
66522;SHT31;53349;53.538;8.584;2022-08-19T04:54:09;19.38;73.00
66522;SHT31;53349;53.538;8.584;2022-08-19T04:56:34;19.36;72.83
66522;SHT31;53349;53.538;8.584;2022-08-19T04:59:00;19.33;72.99
66522;SHT31;53349;53.538;8.584;2022-08-19T05:01:30;19.33;73.02
66522;SHT31;53349;53.538;8.584;2022-08-19T05:03:58;19.29;73.10
66522;SHT31;53349;53.538;8.584;2022-08-19T05:06:24;19.30;73.33
66522;SHT31;53349;53.538;8.584;2022-08-19T05:08:50;19.35;73.34
66522;SHT31;53349;53.538;8.584;2022-08-19T05:11:27;19.35;73.18
66522;SHT31;53349;53.538;8.584;2022-08-19T05:13:54;19.33;73.39
66522;SHT31;53349;53.538;8.584;2022-08-19T05:16:21;19.30;73.66
66522;SHT31;53349;53.538;8.584;2022-08-19T05:18:47;19.38;73.73
66522;SHT31;53349;53.538;8.584;2022-08-19T05:21:31;19.39;73.58
66522;SHT31;53349;53.538;8.584;2022-08-19T05:24:17;19.42;73.47
66522;SHT31;53349;53.538;8.584;2022-08-19T05:26:45;19.46;72.92
66522;SHT31;53349;53.538;8.584;2022-08-19T05:29:13;19.50;72.62
66522;SHT31;53349;53.538;8.584;2022-08-19T05:31:39;19.53;72.38
66522;SHT31;53349;53.538;8.584;2022-08-19T05:34:05;19.56;72.32
66522;SHT31;53349;53.538;8.584;2022-08-19T05:36:37;19.65;72.20
66522;SHT31;53349;53.538;8.584;2022-08-19T05:39:27;19.67;72.00
66522;SHT31;53349;53.538;8.584;2022-08-19T05:41:55;19.69;71.67
66522;SHT31;53349;53.538;8.584;2022-08-19T05:44:23;19.74;71.67
66522;SHT31;53349;53.538;8.584;2022-08-19T05:46:49;19.71;71.87
66522;SHT31;53349;53.538;8.584;2022-08-19T05:49:19;19.71;71.90
66522;SHT31;53349;53.538;8.584;2022-08-19T05:51:46;19.77;71.73
66522;SHT31;53349;53.538;8.584;2022-08-19T05:54:12;19.80;71.54
66522;SHT31;53349;53.538;8.584;2022-08-19T05:56:40;19.84;71.38
66522;SHT31;53349;53.538;8.584;2022-08-19T05:59:07;19.87;71.44
66522;SHT31;53349;53.538;8.584;2022-08-19T06:01:36;19.83;71.31
66522;SHT31;53349;53.538;8.584;2022-08-19T06:04:02;19.88;71.51
66522;SHT31;53349;53.538;8.584;2022-08-19T06:06:28;19.94;71.28
66522;SHT31;53349;53.538;8.584;2022-08-19T06:08:53;20.03;71.26
66522;SHT31;53349;53.538;8.584;2022-08-19T06:13:52;20.14;71.35
66522;SHT31;53349;53.538;8.584;2022-08-19T06:16:21;20.27;71.06
66522;SHT31;53349;53.538;8.584;2022-08-19T06:18:52;20.29;70.74
66522;SHT31;53349;53.538;8.584;2022-08-19T06:21:22;20.34;70.54
66522;SHT31;53349;53.538;8.584;2022-08-19T06:23:49;20.34;70.59
66522;SHT31;53349;53.538;8.584;2022-08-19T06:26:17;20.55;70.40
66522;SHT31;53349;53.538;8.584;2022-08-19T06:28:44;20.62;70.37
66522;SHT31;53349;53.538;8.584;2022-08-19T06:31:17;20.64;70.66
66522;SHT31;53349;53.538;8.584;2022-08-19T06:33:44;20.64;70.56
66522;SHT31;53349;53.538;8.584;2022-08-19T06:36:25;21.02;69.60
66522;SHT31;53349;53.538;8.584;2022-08-19T06:38:55;21.59;68.56
66522;SHT31;53349;53.538;8.584;2022-08-19T06:41:24;21.78;67.87
66522;SHT31;53349;53.538;8.584;2022-08-19T06:43:49;22.02;67.11
66522;SHT31;53349;53.538;8.584;2022-08-19T06:46:16;22.37;66.02
66522;SHT31;53349;53.538;8.584;2022-08-19T06:48:42;22.91;64.89
66522;SHT31;53349;53.538;8.584;2022-08-19T06:51:08;22.78;64.12
66522;SHT31;53349;53.538;8.584;2022-08-19T06:53:34;22.90;63.84
66522;SHT31;53349;53.538;8.584;2022-08-19T06:55:59;22.97;63.84
66522;SHT31;53349;53.538;8.584;2022-08-19T06:58:30;22.88;64.06
66522;SHT31;53349;53.538;8.584;2022-08-19T07:00:59;22.86;63.77
66522;SHT31;53349;53.538;8.584;2022-08-19T07:03:29;23.01;63.15
66522;SHT31;53349;53.538;8.584;2022-08-19T07:05:56;23.18;62.17
66522;SHT31;53349;53.538;8.584;2022-08-19T07:08:21;23.37;61.74
66522;SHT31;53349;53.538;8.584;2022-08-19T07:10:47;23.72;60.43
66522;SHT31;53349;53.538;8.584;2022-08-19T07:13:13;24.16;59.53
66522;SHT31;53349;53.538;8.584;2022-08-19T07:15:39;24.40;59.41
66522;SHT31;53349;53.538;8.584;2022-08-19T07:18:04;24.65;58.32
66522;SHT31;53349;53.538;8.584;2022-08-19T07:20:30;24.78;58.00
66522;SHT31;53349;53.538;8.584;2022-08-19T07:22:55;24.95;57.35
66522;SHT31;53349;53.538;8.584;2022-08-19T07:25:20;24.95;57.41
66522;SHT31;53349;53.538;8.584;2022-08-19T07:27:49;24.77;58.16
66522;SHT31;53349;53.538;8.584;2022-08-19T07:30:14;24.60;57.61
66522;SHT31;53349;53.538;8.584;2022-08-19T07:32:40;24.58;57.83
66522;SHT31;53349;53.538;8.584;2022-08-19T07:35:06;24.47;57.69
66522;SHT31;53349;53.538;8.584;2022-08-19T07:37:32;24.34;57.89
66522;SHT31;53349;53.538;8.584;2022-08-19T07:39:57;24.06;58.97
66522;SHT31;53349;53.538;8.584;2022-08-19T07:42:22;23.93;58.92
66522;SHT31;53349;53.538;8.584;2022-08-19T07:44:48;24.16;58.95
66522;SHT31;53349;53.538;8.584;2022-08-19T07:47:13;24.17;58.39
66522;SHT31;53349;53.538;8.584;2022-08-19T07:49:40;24.00;59.32
66522;SHT31;53349;53.538;8.584;2022-08-19T07:52:08;23.85;59.68
66522;SHT31;53349;53.538;8.584;2022-08-19T07:54:37;23.78;59.34
66522;SHT31;53349;53.538;8.584;2022-08-19T07:57:03;23.66;59.80
66522;SHT31;53349;53.538;8.584;2022-08-19T07:59:29;23.55;60.41
66522;SHT31;53349;53.538;8.584;2022-08-19T08:01:56;23.48;60.48
66522;SHT31;53349;53.538;8.584;2022-08-19T08:04:24;23.35;61.14
66522;SHT31;53349;53.538;8.584;2022-08-19T08:07:08;23.24;61.49
66522;SHT31;53349;53.538;8.584;2022-08-19T08:09:52;22.98;62.28
66522;SHT31;53349;53.538;8.584;2022-08-19T08:12:22;23.03;62.13
66522;SHT31;53349;53.538;8.584;2022-08-19T08:14:52;23.06;61.24
66522;SHT31;53349;53.538;8.584;2022-08-19T08:17:20;23.11;60.81
66522;SHT31;53349;53.538;8.584;2022-08-19T08:19:46;23.12;61.70
66522;SHT31;53349;53.538;8.584;2022-08-19T08:22:15;23.12;60.79
66522;SHT31;53349;53.538;8.584;2022-08-19T08:25:12;23.27;60.43
66522;SHT31;53349;53.538;8.584;2022-08-19T08:27:39;23.31;59.82
66522;SHT31;53349;53.538;8.584;2022-08-19T08:30:28;23.34;59.15
66522;SHT31;53349;53.538;8.584;2022-08-19T08:32:54;23.27;58.63
66522;SHT31;53349;53.538;8.584;2022-08-19T08:35:22;23.21;58.92
66522;SHT31;53349;53.538;8.584;2022-08-19T08:37:49;23.24;58.64
66522;SHT31;53349;53.538;8.584;2022-08-19T08:42:58;23.47;58.32
66522;SHT31;53349;53.538;8.584;2022-08-19T08:45:27;23.48;57.67
66522;SHT31;53349;53.538;8.584;2022-08-19T08:47:55;23.52;57.66
66522;SHT31;53349;53.538;8.584;2022-08-19T08:50:28;23.61;58.24
66522;SHT31;53349;53.538;8.584;2022-08-19T08:52:56;23.66;58.48
66522;SHT31;53349;53.538;8.584;2022-08-19T08:55:25;23.72;58.65
66522;SHT31;53349;53.538;8.584;2022-08-19T08:58:00;23.70;58.67
66522;SHT31;53349;53.538;8.584;2022-08-19T09:00:29;23.78;58.65
66522;SHT31;53349;53.538;8.584;2022-08-19T09:02:57;23.93;58.70
66522;SHT31;53349;53.538;8.584;2022-08-19T09:05:26;24.12;57.65
66522;SHT31;53349;53.538;8.584;2022-08-19T09:08:04;24.24;57.03
66522;SHT31;53349;53.538;8.584;2022-08-19T09:10:37;24.47;56.23
66522;SHT31;53349;53.538;8.584;2022-08-19T09:15:56;25.14;55.92
66522;SHT31;53349;53.538;8.584;2022-08-19T09:18:25;25.54;54.80
66522;SHT31;53349;53.538;8.584;2022-08-19T09:20:50;25.94;53.59
66522;SHT31;53349;53.538;8.584;2022-08-19T09:23:16;26.34;52.83
66522;SHT31;53349;53.538;8.584;2022-08-19T09:25:41;26.46;51.91
66522;SHT31;53349;53.538;8.584;2022-08-19T09:28:07;26.79;51.13
66522;SHT31;53349;53.538;8.584;2022-08-19T09:30:38;27.00;50.81
66522;SHT31;53349;53.538;8.584;2022-08-19T09:33:05;27.10;50.65
66522;SHT31;53349;53.538;8.584;2022-08-19T09:35:31;27.31;50.07
66522;SHT31;53349;53.538;8.584;2022-08-19T09:37:57;27.50;49.30
66522;SHT31;53349;53.538;8.584;2022-08-19T09:40:28;27.62;48.59
66522;SHT31;53349;53.538;8.584;2022-08-19T09:42:54;27.64;48.88
66522;SHT31;53349;53.538;8.584;2022-08-19T09:45:21;27.62;48.83
66522;SHT31;53349;53.538;8.584;2022-08-19T09:47:47;27.57;49.23
66522;SHT31;53349;53.538;8.584;2022-08-19T09:50:14;27.88;48.42
66522;SHT31;53349;53.538;8.584;2022-08-19T09:52:39;27.91;48.30
66522;SHT31;53349;53.538;8.584;2022-08-19T09:55:09;28.05;47.65
66522;SHT31;53349;53.538;8.584;2022-08-19T09:57:35;27.99;47.88
66522;SHT31;53349;53.538;8.584;2022-08-19T10:00:02;28.08;47.70
66522;SHT31;53349;53.538;8.584;2022-08-19T10:02:28;27.88;48.45
66522;SHT31;53349;53.538;8.584;2022-08-19T10:04:53;27.89;48.10
66522;SHT31;53349;53.538;8.584;2022-08-19T10:07:37;27.81;48.54
66522;SHT31;53349;53.538;8.584;2022-08-19T10:10:04;27.81;49.09
66522;SHT31;53349;53.538;8.584;2022-08-19T10:12:32;27.88;48.27
66522;SHT31;53349;53.538;8.584;2022-08-19T10:14:58;28.01;47.53
66522;SHT31;53349;53.538;8.584;2022-08-19T10:17:23;27.85;47.70
66522;SHT31;53349;53.538;8.584;2022-08-19T10:19:50;27.72;48.21
66522;SHT31;53349;53.538;8.584;2022-08-19T10:22:18;27.78;48.13
66522;SHT31;53349;53.538;8.584;2022-08-19T10:24:43;27.77;48.81
66522;SHT31;53349;53.538;8.584;2022-08-19T10:27:08;27.67;48.17
66522;SHT31;53349;53.538;8.584;2022-08-19T10:29:34;27.61;48.35
66522;SHT31;53349;53.538;8.584;2022-08-19T10:32:05;27.53;48.68
66522;SHT31;53349;53.538;8.584;2022-08-19T10:34:33;27.41;48.79
66522;SHT31;53349;53.538;8.584;2022-08-19T10:37:00;27.34;48.75
66522;SHT31;53349;53.538;8.584;2022-08-19T10:39:26;27.29;47.87
66522;SHT31;53349;53.538;8.584;2022-08-19T10:41:54;27.31;48.01
66522;SHT31;53349;53.538;8.584;2022-08-19T10:44:21;27.20;46.31
66522;SHT31;53349;53.538;8.584;2022-08-19T10:46:48;27.20;46.90
66522;SHT31;53349;53.538;8.584;2022-08-19T10:49:13;27.18;47.26
66522;SHT31;53349;53.538;8.584;2022-08-19T10:51:40;27.08;47.77
66522;SHT31;53349;53.538;8.584;2022-08-19T10:54:25;26.99;47.86
66522;SHT31;53349;53.538;8.584;2022-08-19T10:57:12;26.75;47.86
66522;SHT31;53349;53.538;8.584;2022-08-19T10:59:37;26.72;49.59
66522;SHT31;53349;53.538;8.584;2022-08-19T11:02:07;26.73;48.69
66522;SHT31;53349;53.538;8.584;2022-08-19T11:04:35;26.76;48.40
66522;SHT31;53349;53.538;8.584;2022-08-19T11:07:00;26.83;46.56
66522;SHT31;53349;53.538;8.584;2022-08-19T11:09:26;26.97;46.44
66522;SHT31;53349;53.538;8.584;2022-08-19T11:11:53;27.13;46.24
66522;SHT31;53349;53.538;8.584;2022-08-19T11:14:20;27.22;45.69
66522;SHT31;53349;53.538;8.584;2022-08-19T11:16:47;27.30;45.41
66522;SHT31;53349;53.538;8.584;2022-08-19T11:19:13;27.13;45.43
66522;SHT31;53349;53.538;8.584;2022-08-19T11:21:43;27.20;45.45
66522;SHT31;53349;53.538;8.584;2022-08-19T11:24:13;27.31;45.34
66522;SHT31;53349;53.538;8.584;2022-08-19T11:26:41;27.31;45.25
66522;SHT31;53349;53.538;8.584;2022-08-19T11:29:08;27.30;45.72
66522;SHT31;53349;53.538;8.584;2022-08-19T11:31:40;27.33;45.85
66522;SHT31;53349;53.538;8.584;2022-08-19T11:34:08;27.46;46.30
66522;SHT31;53349;53.538;8.584;2022-08-19T11:36:36;27.44;46.10
66522;SHT31;53349;53.538;8.584;2022-08-19T11:39:04;27.41;46.56
66522;SHT31;53349;53.538;8.584;2022-08-19T11:41:30;27.50;46.41
66522;SHT31;53349;53.538;8.584;2022-08-19T11:43:55;27.46;46.13
66522;SHT31;53349;53.538;8.584;2022-08-19T11:46:23;27.44;46.75
66522;SHT31;53349;53.538;8.584;2022-08-19T11:48:49;27.41;46.08
66522;SHT31;53349;53.538;8.584;2022-08-19T11:51:18;27.47;46.56
66522;SHT31;53349;53.538;8.584;2022-08-19T11:53:44;27.61;46.75
66522;SHT31;53349;53.538;8.584;2022-08-19T11:56:10;27.62;46.65
66522;SHT31;53349;53.538;8.584;2022-08-19T11:58:35;27.68;46.64
66522;SHT31;53349;53.538;8.584;2022-08-19T12:01:05;27.74;47.00
66522;SHT31;53349;53.538;8.584;2022-08-19T12:03:30;27.72;46.10
66522;SHT31;53349;53.538;8.584;2022-08-19T12:05:56;27.64;46.98
66522;SHT31;53349;53.538;8.584;2022-08-19T12:08:22;27.59;46.95
66522;SHT31;53349;53.538;8.584;2022-08-19T12:10:48;27.69;46.87
66522;SHT31;53349;53.538;8.584;2022-08-19T12:13:14;27.67;46.77
66522;SHT31;53349;53.538;8.584;2022-08-19T12:15:46;27.65;46.72
66522;SHT31;53349;53.538;8.584;2022-08-19T12:18:12;27.65;47.25
66522;SHT31;53349;53.538;8.584;2022-08-19T12:20:40;27.67;47.04
66522;SHT31;53349;53.538;8.584;2022-08-19T12:23:07;27.62;46.66
66522;SHT31;53349;53.538;8.584;2022-08-19T12:25:35;27.53;47.00
66522;SHT31;53349;53.538;8.584;2022-08-19T12:28:00;27.57;46.98
66522;SHT31;53349;53.538;8.584;2022-08-19T12:30:26;27.40;47.49
66522;SHT31;53349;53.538;8.584;2022-08-19T12:32:51;27.24;48.09
66522;SHT31;53349;53.538;8.584;2022-08-19T12:35:18;27.17;48.77
66522;SHT31;53349;53.538;8.584;2022-08-19T12:37:46;27.20;47.98
66522;SHT31;53349;53.538;8.584;2022-08-19T12:40:12;27.18;48.14
66522;SHT31;53349;53.538;8.584;2022-08-19T12:42:39;27.11;48.96
66522;SHT31;53349;53.538;8.584;2022-08-19T12:45:12;27.03;49.49
66522;SHT31;53349;53.538;8.584;2022-08-19T12:47:38;27.06;49.82
66522;SHT31;53349;53.538;8.584;2022-08-19T12:50:05;26.95;49.99
66522;SHT31;53349;53.538;8.584;2022-08-19T12:52:31;26.89;50.20
66522;SHT31;53349;53.538;8.584;2022-08-19T12:54:57;26.89;50.02
66522;SHT31;53349;53.538;8.584;2022-08-19T12:57:24;26.78;50.14
66522;SHT31;53349;53.538;8.584;2022-08-19T12:59:54;26.78;50.27
66522;SHT31;53349;53.538;8.584;2022-08-19T13:02:20;26.72;50.13
66522;SHT31;53349;53.538;8.584;2022-08-19T13:04:46;26.68;50.60
66522;SHT31;53349;53.538;8.584;2022-08-19T13:07:11;26.52;50.33
66522;SHT31;53349;53.538;8.584;2022-08-19T13:09:37;26.49;50.92
66522;SHT31;53349;53.538;8.584;2022-08-19T13:12:04;26.44;51.54
66522;SHT31;53349;53.538;8.584;2022-08-19T13:14:35;26.31;51.41
66522;SHT31;53349;53.538;8.584;2022-08-19T13:17:01;26.27;51.44
66522;SHT31;53349;53.538;8.584;2022-08-19T13:19:26;26.17;51.41
66522;SHT31;53349;53.538;8.584;2022-08-19T13:21:52;26.13;51.23
66522;SHT31;53349;53.538;8.584;2022-08-19T13:24:19;26.09;51.30
66522;SHT31;53349;53.538;8.584;2022-08-19T13:26:44;25.98;51.63
66522;SHT31;53349;53.538;8.584;2022-08-19T13:29:10;25.90;51.66
66522;SHT31;53349;53.538;8.584;2022-08-19T13:31:54;25.91;47.99
66522;SHT31;53349;53.538;8.584;2022-08-19T13:34:38;25.88;46.54
66522;SHT31;53349;53.538;8.584;2022-08-19T13:37:05;25.86;45.39
66522;SHT31;53349;53.538;8.584;2022-08-19T13:39:34;25.80;43.25
66522;SHT31;53349;53.538;8.584;2022-08-19T13:42:00;25.78;41.54
66522;SHT31;53349;53.538;8.584;2022-08-19T13:44:27;25.76;39.58
66522;SHT31;53349;53.538;8.584;2022-08-19T13:46:55;25.73;37.90
66522;SHT31;53349;53.538;8.584;2022-08-19T13:49:25;25.74;36.13
66522;SHT31;53349;53.538;8.584;2022-08-19T13:51:50;25.65;36.98
66522;SHT31;53349;53.538;8.584;2022-08-19T13:54:15;25.66;39.87
66522;SHT31;53349;53.538;8.584;2022-08-19T13:56:43;25.63;43.46
66522;SHT31;53349;53.538;8.584;2022-08-19T13:59:10;25.67;46.86
66522;SHT31;53349;53.538;8.584;2022-08-19T14:01:36;25.66;49.04
66522;SHT31;53349;53.538;8.584;2022-08-19T14:04:03;25.63;49.58
66522;SHT31;53349;53.538;8.584;2022-08-19T14:06:29;25.60;49.06
66522;SHT31;53349;53.538;8.584;2022-08-19T14:08:55;25.59;48.88
66522;SHT31;53349;53.538;8.584;2022-08-19T14:11:21;25.54;48.42
66522;SHT31;53349;53.538;8.584;2022-08-19T14:13:48;25.51;47.32
66522;SHT31;53349;53.538;8.584;2022-08-19T14:16:14;25.49;47.43
66522;SHT31;53349;53.538;8.584;2022-08-19T14:18:40;25.45;47.36
66522;SHT31;53349;53.538;8.584;2022-08-19T14:21:06;25.47;47.06
66522;SHT31;53349;53.538;8.584;2022-08-19T14:23:33;25.45;47.29
66522;SHT31;53349;53.538;8.584;2022-08-19T14:26:12;25.45;48.05
66522;SHT31;53349;53.538;8.584;2022-08-19T14:28:39;25.42;47.80
66522;SHT31;53349;53.538;8.584;2022-08-19T14:31:06;25.43;48.27
66522;SHT31;53349;53.538;8.584;2022-08-19T14:33:32;25.42;48.61
66522;SHT31;53349;53.538;8.584;2022-08-19T14:35:58;25.39;48.73
66522;SHT31;53349;53.538;8.584;2022-08-19T14:38:25;25.39;49.24
66522;SHT31;53349;53.538;8.584;2022-08-19T14:40:50;25.39;49.41
66522;SHT31;53349;53.538;8.584;2022-08-19T14:43:17;25.36;49.22
66522;SHT31;53349;53.538;8.584;2022-08-19T14:45:43;25.36;49.26
66522;SHT31;53349;53.538;8.584;2022-08-19T14:48:08;25.35;50.02
66522;SHT31;53349;53.538;8.584;2022-08-19T14:50:34;25.35;50.84
66522;SHT31;53349;53.538;8.584;2022-08-19T14:53:04;25.32;50.49
66522;SHT31;53349;53.538;8.584;2022-08-19T14:55:31;25.33;50.54
66522;SHT31;53349;53.538;8.584;2022-08-19T14:57:57;25.37;50.94
66522;SHT31;53349;53.538;8.584;2022-08-19T15:00:23;25.37;51.23
66522;SHT31;53349;53.538;8.584;2022-08-19T15:02:50;25.40;51.19
66522;SHT31;53349;53.538;8.584;2022-08-19T15:05:15;25.40;50.77
66522;SHT31;53349;53.538;8.584;2022-08-19T15:07:41;25.42;50.62
66522;SHT31;53349;53.538;8.584;2022-08-19T15:10:08;25.43;51.01
66522;SHT31;53349;53.538;8.584;2022-08-19T15:12:36;25.39;51.32
66522;SHT31;53349;53.538;8.584;2022-08-19T15:15:03;25.37;50.79
66522;SHT31;53349;53.538;8.584;2022-08-19T15:17:29;25.35;49.64
66522;SHT31;53349;53.538;8.584;2022-08-19T15:19:55;25.35;49.11
66522;SHT31;53349;53.538;8.584;2022-08-19T15:22:20;25.36;50.24
66522;SHT31;53349;53.538;8.584;2022-08-19T15:24:46;25.33;50.80
66522;SHT31;53349;53.538;8.584;2022-08-19T15:27:12;25.30;51.23
66522;SHT31;53349;53.538;8.584;2022-08-19T15:29:38;25.29;51.40
66522;SHT31;53349;53.538;8.584;2022-08-19T15:32:03;25.27;51.63
66522;SHT31;53349;53.538;8.584;2022-08-19T15:34:31;25.25;51.58
66522;SHT31;53349;53.538;8.584;2022-08-19T15:36:57;25.23;51.46
66522;SHT31;53349;53.538;8.584;2022-08-19T15:39:23;25.19;51.61
66522;SHT31;53349;53.538;8.584;2022-08-19T15:41:49;25.18;51.46
66522;SHT31;53349;53.538;8.584;2022-08-19T15:44:16;25.19;51.38